N850LD LFBZ-LFPN
Flight info
| Callsign | N850LD |
|---|---|
| Flight time | N/A |
| Altitude | 26000 |
| Route | VAVIX DCT TUDRA DCT BEVOL UT158 AMB |
| Aircraft | PC12/L-SDFGRWY/S |
Departure
| Time | 2026-04-20 13:08 |
|---|---|
| Airport | Biarritz Pays Basque airport (LFBZ) |
Arrival
| Time | N/A |
|---|---|
| Airport | Toussus-le-Noble Airport (LFPN) |
| Time | Latitude | Longitude | Altitude | Speed | Heading |
|---|---|---|---|---|---|
| 2026-04-20 12:50 | 43.47036 | -1.53431 | 255 ft | 0 kts | 89° |
| 2026-04-20 13:02 | 43.47036 | -1.53429 | 255 ft | 1 kts | 86° |
| 2026-04-20 13:02 | 43.47037 | -1.53410 | 255 ft | 3 kts | 85° |
| 2026-04-20 13:02 | 43.47025 | -1.53386 | 255 ft | 4 kts | 170° |
| 2026-04-20 13:03 | 43.46995 | -1.53386 | 255 ft | 5 kts | 176° |
| 2026-04-20 13:03 | 43.46984 | -1.53358 | 254 ft | 4 kts | 64° |
| 2026-04-20 13:03 | 43.46987 | -1.53321 | 254 ft | 4 kts | 91° |
| 2026-04-20 13:03 | 43.46987 | -1.53275 | 254 ft | 5 kts | 89° |
| 2026-04-20 13:04 | 43.46987 | -1.53236 | 253 ft | 4 kts | 100° |
| 2026-04-20 13:04 | 43.46969 | -1.53207 | 253 ft | 4 kts | 153° |
| 2026-04-20 13:04 | 43.46939 | -1.53187 | 253 ft | 6 kts | 154° |
| 2026-04-20 13:04 | 43.46893 | -1.53165 | 252 ft | 9 kts | 180° |
| 2026-04-20 13:05 | 43.46839 | -1.53207 | 253 ft | 9 kts | 239° |
| 2026-04-20 13:05 | 43.46829 | -1.53291 | 254 ft | 9 kts | 268° |
| 2026-04-20 13:05 | 43.46828 | -1.53378 | 255 ft | 9 kts | 269° |
| 2026-04-20 13:05 | 43.46827 | -1.53469 | 256 ft | 10 kts | 269° |
| 2026-04-20 13:06 | 43.46826 | -1.53568 | 256 ft | 11 kts | 269° |
| 2026-04-20 13:06 | 43.46825 | -1.53670 | 257 ft | 7 kts | 269° |
| 2026-04-20 13:06 | 43.46840 | -1.53707 | 257 ft | 5 kts | 356° |
| 2026-04-20 13:06 | 43.46846 | -1.53668 | 256 ft | 7 kts | 155° |
| 2026-04-20 13:07 | 43.46825 | -1.53633 | 257 ft | 7 kts | 89° |
| 2026-04-20 13:07 | 43.46827 | -1.53565 | 256 ft | 0 kts | 88° |
| 2026-04-20 13:07 | 43.46829 | -1.53422 | 255 ft | 35 kts | 89° |
| 2026-04-20 13:07 | 43.46839 | -1.52863 | 251 ft | 81 kts | 90° |
| 2026-04-20 13:08 | 43.46828 | -1.51964 | 365 ft | 101 kts | 89° |
| 2026-04-20 13:08 | 43.46797 | -1.50952 | 575 ft | 113 kts | 91° |
| 2026-04-20 13:08 | 43.46758 | -1.49790 | 772 ft | 132 kts | 90° |
| 2026-04-20 13:08 | 43.46730 | -1.48466 | 1113 ft | 139 kts | 86° |
| 2026-04-20 13:09 | 43.46815 | -1.47132 | 1551 ft | 146 kts | 78° |
| 2026-04-20 13:09 | 43.47259 | -1.45867 | 2026 ft | 150 kts | 49° |
| 2026-04-20 13:09 | 43.48090 | -1.44959 | 2530 ft | 154 kts | 36° |
| 2026-04-20 13:09 | 43.49035 | -1.44100 | 2866 ft | 164 kts | 34° |
| 2026-04-20 13:10 | 43.49979 | -1.43257 | 3339 ft | 159 kts | 32° |
| 2026-04-20 13:10 | 43.50981 | -1.42725 | 3725 ft | 156 kts | 357° |
| 2026-04-20 13:10 | 43.52017 | -1.42980 | 4138 ft | 153 kts | 346° |
| 2026-04-20 13:10 | 43.53058 | -1.43299 | 4539 ft | 153 kts | 346° |
| 2026-04-20 13:11 | 43.54101 | -1.43624 | 4903 ft | 154 kts | 345° |
| 2026-04-20 13:11 | 43.55104 | -1.44094 | 5272 ft | 153 kts | 334° |
| 2026-04-20 13:11 | 43.56147 | -1.44468 | 5688 ft | 159 kts | 353° |
| 2026-04-20 13:11 | 43.57265 | -1.44357 | 6154 ft | 163 kts | 5° |
| 2026-04-20 13:12 | 43.58392 | -1.44108 | 6575 ft | 164 kts | 6° |
| 2026-04-20 13:12 | 43.59523 | -1.43849 | 6981 ft | 165 kts | 6° |
| 2026-04-20 13:12 | 43.60644 | -1.43600 | 7393 ft | 165 kts | 5° |
| 2026-04-20 13:12 | 43.61781 | -1.43349 | 7827 ft | 166 kts | 5° |
| 2026-04-20 13:13 | 43.62919 | -1.43099 | 8262 ft | 165 kts | 5° |
| 2026-04-20 13:13 | 43.64054 | -1.42849 | 8730 ft | 165 kts | 5° |
| 2026-04-20 13:13 | 43.65190 | -1.42599 | 9192 ft | 166 kts | 4° |
| 2026-04-20 13:13 | 43.66330 | -1.42349 | 9649 ft | 166 kts | 4° |
| 2026-04-20 13:14 | 43.67470 | -1.42098 | 10079 ft | 166 kts | 4° |
| 2026-04-20 13:14 | 43.68609 | -1.41816 | 10467 ft | 168 kts | 11° |
| 2026-04-20 13:14 | 43.69630 | -1.40978 | 10853 ft | 175 kts | 38° |
| 2026-04-20 13:14 | 43.70512 | -1.39811 | 11249 ft | 176 kts | 39° |
| 2026-04-20 13:15 | 43.71382 | -1.38657 | 11642 ft | 176 kts | 39° |
| 2026-04-20 13:15 | 43.72268 | -1.37487 | 12044 ft | 176 kts | 39° |
| 2026-04-20 13:15 | 43.73156 | -1.36314 | 12446 ft | 177 kts | 39° |
| 2026-04-20 13:15 | 43.74045 | -1.35140 | 12852 ft | 177 kts | 39° |
| 2026-04-20 13:16 | 43.74934 | -1.33966 | 13266 ft | 177 kts | 39° |
| 2026-04-20 13:16 | 43.75824 | -1.32789 | 13702 ft | 177 kts | 38° |
| 2026-04-20 13:16 | 43.76716 | -1.31609 | 14091 ft | 177 kts | 38° |
| 2026-04-20 13:16 | 43.77608 | -1.30430 | 14466 ft | 178 kts | 38° |
| 2026-04-20 13:17 | 43.78489 | -1.29263 | 14827 ft | 178 kts | 38° |
| 2026-04-20 13:17 | 43.79384 | -1.28078 | 15192 ft | 178 kts | 38° |
| 2026-04-20 13:17 | 43.80306 | -1.26950 | 15556 ft | 176 kts | 33° |
| 2026-04-20 13:17 | 43.81235 | -1.25834 | 15919 ft | 178 kts | 35° |
| 2026-04-20 13:18 | 43.82168 | -1.24699 | 16296 ft | 179 kts | 34° |
| 2026-04-20 13:18 | 43.83110 | -1.23565 | 16688 ft | 180 kts | 34° |
| 2026-04-20 13:18 | 43.84058 | -1.22428 | 17084 ft | 181 kts | 34° |
| 2026-04-20 13:18 | 43.85009 | -1.21286 | 17481 ft | 181 kts | 34° |
| 2026-04-20 13:19 | 43.85961 | -1.20143 | 17879 ft | 181 kts | 34° |
| 2026-04-20 13:19 | 43.86903 | -1.19012 | 18259 ft | 182 kts | 34° |
| 2026-04-20 13:19 | 43.87858 | -1.17863 | 18598 ft | 182 kts | 33° |
| 2026-04-20 13:19 | 43.88814 | -1.16713 | 18945 ft | 182 kts | 33° |
| 2026-04-20 13:20 | 43.89772 | -1.15561 | 19288 ft | 183 kts | 33° |
| 2026-04-20 13:20 | 43.90732 | -1.14405 | 19638 ft | 183 kts | 33° |
| 2026-04-20 13:20 | 43.91692 | -1.13249 | 19977 ft | 183 kts | 33° |
| 2026-04-20 13:20 | 43.92654 | -1.12090 | 20321 ft | 183 kts | 33° |
| 2026-04-20 13:21 | 43.93619 | -1.10928 | 20665 ft | 184 kts | 33° |
| 2026-04-20 13:21 | 43.94572 | -1.09778 | 21003 ft | 184 kts | 33° |
| 2026-04-20 13:21 | 43.95541 | -1.08609 | 21347 ft | 185 kts | 33° |
| 2026-04-20 13:21 | 43.96513 | -1.07436 | 21691 ft | 185 kts | 33° |
| 2026-04-20 13:22 | 43.97488 | -1.06258 | 22044 ft | 186 kts | 33° |
| 2026-04-20 13:22 | 43.98466 | -1.05078 | 22396 ft | 187 kts | 33° |
| 2026-04-20 13:22 | 43.99446 | -1.03893 | 22748 ft | 187 kts | 33° |
| 2026-04-20 13:22 | 44.00430 | -1.02704 | 23107 ft | 188 kts | 33° |
| 2026-04-20 13:23 | 44.01426 | -1.01501 | 23479 ft | 191 kts | 33° |
| 2026-04-20 13:23 | 44.02423 | -1.00291 | 23789 ft | 191 kts | 33° |
| 2026-04-20 13:23 | 44.03417 | -0.99089 | 24104 ft | 193 kts | 33° |
| 2026-04-20 13:23 | 44.04434 | -0.97857 | 24419 ft | 195 kts | 33° |
| 2026-04-20 13:24 | 44.05457 | -0.96617 | 24732 ft | 196 kts | 33° |
| 2026-04-20 13:24 | 44.06487 | -0.95368 | 25054 ft | 197 kts | 33° |
| 2026-04-20 13:24 | 44.07520 | -0.94114 | 25377 ft | 198 kts | 33° |
| 2026-04-20 13:24 | 44.08559 | -0.92854 | 25706 ft | 199 kts | 33° |
| 2026-04-20 13:25 | 44.09601 | -0.91588 | 26040 ft | 199 kts | 33° |
| 2026-04-20 13:25 | 44.10650 | -0.90315 | 26362 ft | 200 kts | 33° |
| 2026-04-20 13:25 | 44.11688 | -0.89053 | 26685 ft | 201 kts | 33° |
| 2026-04-20 13:25 | 44.12743 | -0.87769 | 27016 ft | 202 kts | 33° |
| 2026-04-20 13:26 | 44.13812 | -0.86471 | 27210 ft | 211 kts | 33° |
| 2026-04-20 13:26 | 44.14969 | -0.85073 | 27187 ft | 229 kts | 34° |
| 2026-04-20 13:26 | 44.16202 | -0.83567 | 27189 ft | 242 kts | 35° |
| 2026-04-20 13:26 | 44.17499 | -0.81978 | 27185 ft | 254 kts | 35° |
| 2026-04-20 13:27 | 44.18876 | -0.80297 | 26944 ft | 272 kts | 36° |
| 2026-04-20 13:27 | 44.20337 | -0.78513 | 26694 ft | 286 kts | 36° |
| 2026-04-20 13:27 | 44.21861 | -0.76648 | 26443 ft | 296 kts | 36° |
| 2026-04-20 13:27 | 44.23412 | -0.74750 | 26212 ft | 304 kts | 36° |
| 2026-04-20 13:28 | 44.25014 | -0.72790 | 25974 ft | 309 kts | 36° |
| 2026-04-20 13:28 | 44.26617 | -0.70824 | 25953 ft | 304 kts | 36° |
| 2026-04-20 13:28 | 44.28286 | -0.69130 | 25953 ft | 290 kts | 22° |
| 2026-04-20 13:28 | 44.30085 | -0.67968 | 25954 ft | 281 kts | 17° |
| 2026-04-20 13:29 | 44.31860 | -0.66870 | 25961 ft | 278 kts | 17° |
| 2026-04-20 13:29 | 44.33614 | -0.65770 | 25956 ft | 274 kts | 17° |
| 2026-04-20 13:29 | 44.35347 | -0.64682 | 25956 ft | 272 kts | 17° |
| 2026-04-20 13:29 | 44.37043 | -0.63620 | 25953 ft | 270 kts | 17° |
| 2026-04-20 13:30 | 44.38756 | -0.62549 | 25954 ft | 269 kts | 17° |
| 2026-04-20 13:30 | 44.40457 | -0.61482 | 25953 ft | 268 kts | 17° |
| 2026-04-20 13:30 | 44.42152 | -0.60418 | 25965 ft | 267 kts | 17° |
| 2026-04-20 13:30 | 44.43846 | -0.59354 | 25964 ft | 266 kts | 17° |
| 2026-04-20 13:31 | 44.45536 | -0.58293 | 25963 ft | 266 kts | 17° |
| 2026-04-20 13:31 | 44.47220 | -0.57234 | 25965 ft | 265 kts | 17° |
| 2026-04-20 13:31 | 44.48903 | -0.56175 | 25962 ft | 265 kts | 17° |
| 2026-04-20 13:31 | 44.50582 | -0.55118 | 25965 ft | 265 kts | 17° |
| 2026-04-20 13:32 | 44.52260 | -0.54062 | 25964 ft | 264 kts | 17° |
| 2026-04-20 13:32 | 44.53914 | -0.53019 | 25964 ft | 264 kts | 17° |
| 2026-04-20 13:32 | 44.55587 | -0.51964 | 25964 ft | 264 kts | 17° |
| 2026-04-20 13:32 | 44.57261 | -0.50908 | 25966 ft | 264 kts | 17° |
| 2026-04-20 13:33 | 44.58949 | -0.49844 | 25968 ft | 268 kts | 17° |
| 2026-04-20 13:33 | 44.60663 | -0.48763 | 25971 ft | 272 kts | 17° |
| 2026-04-20 13:33 | 44.62396 | -0.47666 | 25969 ft | 275 kts | 17° |
| 2026-04-20 13:33 | 44.64143 | -0.46559 | 25970 ft | 276 kts | 17° |
| 2026-04-20 13:34 | 44.65897 | -0.45448 | 25970 ft | 277 kts | 17° |
| 2026-04-20 13:34 | 44.67636 | -0.44347 | 25970 ft | 278 kts | 17° |
| 2026-04-20 13:34 | 44.69402 | -0.43227 | 25971 ft | 279 kts | 17° |
| 2026-04-20 13:34 | 44.71172 | -0.42104 | 25971 ft | 279 kts | 17° |
| 2026-04-20 13:35 | 44.72946 | -0.40977 | 25969 ft | 280 kts | 17° |
| 2026-04-20 13:35 | 44.74721 | -0.39850 | 25970 ft | 280 kts | 17° |
| 2026-04-20 13:35 | 44.76498 | -0.38721 | 25970 ft | 280 kts | 17° |
| 2026-04-20 13:35 | 44.78275 | -0.37590 | 25971 ft | 281 kts | 17° |
| 2026-04-20 13:36 | 44.80055 | -0.36457 | 25973 ft | 281 kts | 17° |
| 2026-04-20 13:36 | 44.81834 | -0.35324 | 25973 ft | 281 kts | 17° |
| 2026-04-20 13:36 | 44.83591 | -0.34204 | 25972 ft | 281 kts | 17° |
| 2026-04-20 13:36 | 44.85373 | -0.33067 | 25974 ft | 281 kts | 17° |
| 2026-04-20 13:37 | 44.87152 | -0.31931 | 25972 ft | 281 kts | 17° |
| 2026-04-20 13:37 | 44.88937 | -0.30792 | 25972 ft | 281 kts | 17° |
| 2026-04-20 13:37 | 44.90717 | -0.29654 | 25967 ft | 281 kts | 17° |
| 2026-04-20 13:37 | 44.92498 | -0.28515 | 25967 ft | 281 kts | 17° |
| 2026-04-20 13:38 | 44.94275 | -0.27377 | 25965 ft | 281 kts | 17° |
| 2026-04-20 13:38 | 44.96054 | -0.26238 | 25965 ft | 280 kts | 17° |
| 2026-04-20 13:38 | 44.97828 | -0.25102 | 25965 ft | 280 kts | 17° |
| 2026-04-20 13:38 | 44.99577 | -0.23980 | 25976 ft | 280 kts | 17° |
| 2026-04-20 13:39 | 45.01359 | -0.22837 | 25971 ft | 281 kts | 17° |
| 2026-04-20 13:39 | 45.03138 | -0.21694 | 25971 ft | 281 kts | 17° |
| 2026-04-20 13:39 | 45.04914 | -0.20552 | 25971 ft | 281 kts | 17° |
| 2026-04-20 13:39 | 45.06688 | -0.19411 | 25970 ft | 280 kts | 17° |
| 2026-04-20 13:40 | 45.08463 | -0.18269 | 25969 ft | 280 kts | 17° |
| 2026-04-20 13:40 | 45.10240 | -0.17125 | 25967 ft | 280 kts | 17° |
| 2026-04-20 13:40 | 45.12012 | -0.15983 | 25966 ft | 280 kts | 17° |
| 2026-04-20 13:40 | 45.13783 | -0.14841 | 25968 ft | 280 kts | 17° |
| 2026-04-20 13:41 | 45.15557 | -0.13697 | 25970 ft | 280 kts | 17° |
| 2026-04-20 13:41 | 45.17330 | -0.12552 | 25970 ft | 280 kts | 17° |
| 2026-04-20 13:41 | 45.19081 | -0.11420 | 25969 ft | 280 kts | 17° |
| 2026-04-20 13:41 | 45.20860 | -0.10270 | 25970 ft | 281 kts | 17° |
| 2026-04-20 13:42 | 45.22637 | -0.09120 | 25971 ft | 281 kts | 17° |
| 2026-04-20 13:42 | 45.26187 | -0.06820 | 25974 ft | 280 kts | 17° |
| 2026-04-20 13:42 | 45.27960 | -0.05671 | 25973 ft | 280 kts | 17° |
| 2026-04-20 13:43 | 45.29736 | -0.04519 | 25972 ft | 280 kts | 17° |
| 2026-04-20 13:43 | 45.31510 | -0.03367 | 25972 ft | 280 kts | 17° |
| 2026-04-20 13:43 | 45.33258 | -0.02231 | 25972 ft | 280 kts | 17° |
| 2026-04-20 13:43 | 45.35034 | -0.01076 | 25975 ft | 280 kts | 17° |
| 2026-04-20 13:44 | 45.36808 | 0.00078 | 25971 ft | 280 kts | 17° |
| 2026-04-20 13:44 | 45.38582 | 0.01233 | 25988 ft | 281 kts | 17° |
| 2026-04-20 13:44 | 45.40364 | 0.02394 | 25973 ft | 281 kts | 17° |
| 2026-04-20 13:44 | 45.42142 | 0.03553 | 25974 ft | 281 kts | 17° |
| 2026-04-20 13:45 | 45.43919 | 0.04713 | 25975 ft | 281 kts | 17° |
| 2026-04-20 13:45 | 45.45695 | 0.05872 | 25974 ft | 281 kts | 17° |
| 2026-04-20 13:45 | 45.47474 | 0.07034 | 25975 ft | 281 kts | 17° |
| 2026-04-20 13:45 | 45.49229 | 0.08182 | 25974 ft | 281 kts | 17° |
| 2026-04-20 13:46 | 45.51007 | 0.09345 | 25972 ft | 281 kts | 17° |
| 2026-04-20 13:46 | 45.52784 | 0.10508 | 25972 ft | 281 kts | 17° |
| 2026-04-20 13:46 | 45.54562 | 0.11673 | 25979 ft | 281 kts | 17° |
| 2026-04-20 13:46 | 45.56340 | 0.12840 | 25980 ft | 281 kts | 17° |
| 2026-04-20 13:47 | 45.58117 | 0.14005 | 25995 ft | 281 kts | 17° |
| 2026-04-20 13:47 | 45.59898 | 0.15175 | 25981 ft | 282 kts | 17° |
| 2026-04-20 13:47 | 45.61679 | 0.16345 | 25977 ft | 282 kts | 17° |
| 2026-04-20 13:47 | 45.63460 | 0.17516 | 25979 ft | 282 kts | 17° |
| 2026-04-20 13:48 | 45.65239 | 0.18687 | 25982 ft | 282 kts | 17° |
| 2026-04-20 13:48 | 45.67019 | 0.19859 | 25982 ft | 281 kts | 17° |
| 2026-04-20 13:48 | 45.68773 | 0.21014 | 25982 ft | 281 kts | 17° |
| 2026-04-20 13:48 | 45.70549 | 0.22185 | 25999 ft | 281 kts | 17° |
| 2026-04-20 13:49 | 45.72326 | 0.23357 | 25999 ft | 281 kts | 17° |
| 2026-04-20 13:49 | 45.74104 | 0.24531 | 26000 ft | 281 kts | 17° |
| 2026-04-20 13:49 | 45.75880 | 0.25705 | 26001 ft | 281 kts | 17° |
| 2026-04-20 13:49 | 45.77656 | 0.26879 | 26007 ft | 281 kts | 16° |
| 2026-04-20 13:50 | 45.79435 | 0.28056 | 26000 ft | 281 kts | 16° |
| 2026-04-20 13:50 | 45.81212 | 0.29233 | 26000 ft | 281 kts | 16° |
| 2026-04-20 13:50 | 45.82963 | 0.30393 | 25999 ft | 281 kts | 16° |
| 2026-04-20 13:50 | 45.84738 | 0.31570 | 25999 ft | 281 kts | 16° |
| 2026-04-20 13:51 | 45.86512 | 0.32746 | 25997 ft | 281 kts | 16° |
| 2026-04-20 13:51 | 45.88287 | 0.33925 | 25996 ft | 281 kts | 16° |
| 2026-04-20 13:51 | 45.90064 | 0.35106 | 25996 ft | 281 kts | 16° |
| 2026-04-20 13:51 | 45.91841 | 0.36287 | 25996 ft | 281 kts | 16° |
| 2026-04-20 13:52 | 45.93616 | 0.37469 | 25999 ft | 281 kts | 16° |
| 2026-04-20 13:52 | 45.95389 | 0.38649 | 25998 ft | 281 kts | 16° |
| 2026-04-20 13:52 | 45.97140 | 0.39815 | 26020 ft | 282 kts | 16° |
| 2026-04-20 13:52 | 45.98921 | 0.41002 | 26000 ft | 283 kts | 16° |
| 2026-04-20 13:53 | 46.00706 | 0.42194 | 25999 ft | 283 kts | 16° |
| 2026-04-20 13:53 | 46.02492 | 0.43387 | 26004 ft | 283 kts | 16° |
| 2026-04-20 13:53 | 46.04278 | 0.44581 | 26006 ft | 283 kts | 16° |
| 2026-04-20 13:53 | 46.06065 | 0.45775 | 26006 ft | 283 kts | 16° |
| 2026-04-20 13:54 | 46.07848 | 0.46968 | 26003 ft | 283 kts | 17° |
| 2026-04-20 13:54 | 46.09620 | 0.48155 | 26014 ft | 283 kts | 16° |
| 2026-04-20 13:54 | 46.11405 | 0.49351 | 26015 ft | 283 kts | 16° |
| 2026-04-20 13:54 | 46.13167 | 0.50533 | 26014 ft | 283 kts | 16° |
| 2026-04-20 13:55 | 46.14949 | 0.51729 | 26014 ft | 283 kts | 16° |
| 2026-04-20 13:55 | 46.16732 | 0.52926 | 26016 ft | 283 kts | 17° |
| 2026-04-20 13:55 | 46.18516 | 0.54125 | 26020 ft | 283 kts | 16° |
| 2026-04-20 13:55 | 46.20301 | 0.55326 | 26020 ft | 283 kts | 16° |
| 2026-04-20 13:56 | 46.22084 | 0.56527 | 26018 ft | 282 kts | 16° |
| 2026-04-20 13:56 | 46.23864 | 0.57725 | 26016 ft | 282 kts | 16° |
| 2026-04-20 13:56 | 46.25641 | 0.58923 | 26021 ft | 282 kts | 16° |
| 2026-04-20 13:56 | 46.27419 | 0.60122 | 26022 ft | 282 kts | 16° |
| 2026-04-20 13:57 | 46.28597 | 0.60917 | 26022 ft | 282 kts | 16° |
| 2026-04-20 13:57 | 46.30949 | 0.62505 | 26024 ft | 282 kts | 16° |
| 2026-04-20 13:57 | 46.32726 | 0.63706 | 26029 ft | 282 kts | 16° |
| 2026-04-20 13:57 | 46.34499 | 0.64906 | 26031 ft | 282 kts | 16° |
| 2026-04-20 13:58 | 46.36276 | 0.66108 | 26028 ft | 282 kts | 16° |
| 2026-04-20 13:58 | 46.37454 | 0.66906 | 26031 ft | 283 kts | 16° |
| 2026-04-20 13:58 | 46.39233 | 0.68112 | 26031 ft | 282 kts | 16° |
| 2026-04-20 13:58 | 46.41009 | 0.69317 | 26036 ft | 282 kts | 16° |
| 2026-04-20 13:59 | 46.42783 | 0.70521 | 26036 ft | 282 kts | 16° |
| 2026-04-20 13:59 | 46.44559 | 0.71727 | 26037 ft | 282 kts | 16° |